createdAt,value
2024-01-06T00:00:26.637Z,16.25
2024-01-06T00:03:29.939Z,16.27
2024-01-06T00:06:33.578Z,16.80
2024-01-06T00:09:36.787Z,19.75
2024-01-06T00:12:39.963Z,19.40
2024-01-06T00:15:43.057Z,18.27
2024-01-06T00:18:46.556Z,20.57
2024-01-06T00:21:49.677Z,19.05
2024-01-06T00:24:52.830Z,18.90
2024-01-06T00:27:55.871Z,19.40
2024-01-06T00:30:59.049Z,17.85
2024-01-06T00:34:02.490Z,18.37
2024-01-06T00:37:05.743Z,19.33
2024-01-06T00:40:09.168Z,18.67
2024-01-06T00:43:12.174Z,18.80
2024-01-06T00:46:15.324Z,21.00
2024-01-06T00:49:18.452Z,20.20
2024-01-06T00:52:21.529Z,19.65
2024-01-06T00:55:25.544Z,20.25
2024-01-06T00:58:28.538Z,20.50
2024-01-06T01:01:31.590Z,18.92
2024-01-06T01:04:34.694Z,19.03
2024-01-06T01:07:37.966Z,18.95
2024-01-06T01:10:41.277Z,19.55
2024-01-06T01:13:44.492Z,18.05
2024-01-06T01:16:47.828Z,19.15
2024-01-06T01:19:51.195Z,19.87
2024-01-06T01:22:54.671Z,18.77
2024-01-06T01:25:57.911Z,17.88
2024-01-06T01:29:01.137Z,18.83
2024-01-06T01:32:04.871Z,18.50
2024-01-06T01:35:09.619Z,19.30
2024-01-06T01:38:12.863Z,18.30
2024-01-06T01:41:16.181Z,19.00
2024-01-06T01:44:19.486Z,17.40
2024-01-06T01:47:22.812Z,17.58
2024-01-06T01:50:29.017Z,18.87
2024-01-06T01:53:32.449Z,18.02
2024-01-06T01:56:35.497Z,19.40
2024-01-06T01:59:38.572Z,17.83
2024-01-06T02:02:41.691Z,18.60
2024-01-06T02:05:44.825Z,18.13
2024-01-06T02:08:47.807Z,18.00
2024-01-06T02:11:50.832Z,17.67
2024-01-06T02:14:53.896Z,17.73
2024-01-06T02:17:56.942Z,16.80
2024-01-06T02:21:01.675Z,16.90
2024-01-06T02:24:04.869Z,15.93
2024-01-06T02:27:07.910Z,16.42
2024-01-06T02:30:11.595Z,16.13
2024-01-06T02:33:15.118Z,15.98
2024-01-06T02:36:18.482Z,16.43
2024-01-06T02:39:21.963Z,16.40
2024-01-06T02:42:26.616Z,15.90
2024-01-06T02:45:29.924Z,15.82
2024-01-06T02:48:33.277Z,15.10
2024-01-06T02:51:36.578Z,13.10
2024-01-06T02:54:39.954Z,14.30
2024-01-06T02:57:43.342Z,13.18
2024-01-06T03:00:46.699Z,13.77
2024-01-06T03:03:49.853Z,13.20
2024-01-06T03:06:54.968Z,14.03
2024-01-06T03:09:58.173Z,13.82
2024-01-06T03:13:01.239Z,14.48
2024-01-06T03:16:07.085Z,13.75
2024-01-06T03:19:10.214Z,13.55
2024-01-06T03:22:13.304Z,14.30
2024-01-06T03:25:16.369Z,12.45
2024-01-06T03:28:19.502Z,12.63
2024-01-06T03:31:23.925Z,12.13
2024-01-06T03:34:27.186Z,12.95
2024-01-06T03:37:30.212Z,12.87
2024-01-06T03:40:33.364Z,12.38
2024-01-06T03:43:36.482Z,12.50
2024-01-06T03:46:39.678Z,12.45
2024-01-06T03:49:42.926Z,13.35
2024-01-06T03:52:46.098Z,12.57
2024-01-06T03:55:49.098Z,11.82
2024-01-06T03:58:52.112Z,12.00
2024-01-06T04:01:55.142Z,11.35
2024-01-06T04:04:58.161Z,11.80
2024-01-06T04:08:02.333Z,12.90
2024-01-06T04:11:05.303Z,12.80
2024-01-06T04:14:09.005Z,14.13
2024-01-06T04:17:12.004Z,13.93
2024-01-06T04:20:14.984Z,14.57
2024-01-06T04:23:17.966Z,12.97
2024-01-06T04:26:21.071Z,13.20
2024-01-06T04:29:24.167Z,15.18
2024-01-06T04:32:27.523Z,13.40
2024-01-06T04:35:30.685Z,14.60
2024-01-06T04:38:33.816Z,14.10
2024-01-06T04:41:37.102Z,14.98
2024-01-06T04:44:40.368Z,15.50
2024-01-06T04:47:43.700Z,13.80
2024-01-06T04:50:46.837Z,14.60
2024-01-06T04:53:50.043Z,14.00
2024-01-06T04:56:53.250Z,13.55
2024-01-06T04:59:56.347Z,14.55
2024-01-06T05:02:59.634Z,14.88
2024-01-06T05:06:02.953Z,14.27
2024-01-06T05:09:06.206Z,14.50
2024-01-06T05:12:09.604Z,13.93
2024-01-06T05:15:13.237Z,15.15
2024-01-06T05:18:16.716Z,14.68
2024-01-06T05:21:20.073Z,14.60
2024-01-06T05:24:23.620Z,14.83
2024-01-06T05:27:26.914Z,15.63
2024-01-06T05:30:30.001Z,14.48
2024-01-06T05:33:33.114Z,13.38
2024-01-06T05:36:36.172Z,13.77
2024-01-06T05:39:41.070Z,13.53
2024-01-06T05:42:44.201Z,16.05
2024-01-06T05:45:47.251Z,18.10
2024-01-06T05:48:50.506Z,16.42
2024-01-06T05:51:53.824Z,14.07
2024-01-06T05:54:56.957Z,11.83
2024-01-06T05:58:00.276Z,11.85
2024-01-06T06:01:04.035Z,10.43
2024-01-06T06:04:07.377Z,10.35
2024-01-06T06:07:10.544Z,11.02
2024-01-06T06:10:14.063Z,11.03
2024-01-06T06:13:17.381Z,11.85
2024-01-06T06:16:20.556Z,11.02
2024-01-06T06:19:23.886Z,11.48
2024-01-06T06:22:33.042Z,11.82
2024-01-06T06:25:38.097Z,10.73
2024-01-06T06:28:41.085Z,12.68
2024-01-06T06:31:46.104Z,13.45
2024-01-06T06:34:49.341Z,12.52
2024-01-06T06:37:52.427Z,11.63
2024-01-06T06:40:55.657Z,11.50
2024-01-06T06:43:59.529Z,11.27
2024-01-06T06:47:02.513Z,11.57
2024-01-06T06:50:06.501Z,10.70
2024-01-06T06:53:10.007Z,10.48
2024-01-06T06:56:15.483Z,10.00
2024-01-06T06:59:18.574Z,10.80
2024-01-06T07:02:21.554Z,9.95
2024-01-06T07:05:24.615Z,9.57
2024-01-06T07:08:27.653Z,9.85
2024-01-06T07:11:30.679Z,9.67
2024-01-06T07:14:33.623Z,9.20
2024-01-06T07:17:36.710Z,9.35
2024-01-06T07:20:39.772Z,10.35
2024-01-06T07:23:43.750Z,11.77
2024-01-06T07:26:46.841Z,12.53
2024-01-06T07:29:49.822Z,9.85
2024-01-06T07:32:53.381Z,10.07
2024-01-06T07:35:56.566Z,15.13
2024-01-06T07:38:59.683Z,15.20
2024-01-06T07:42:03.941Z,13.57
2024-01-06T07:45:07.534Z,14.07
2024-01-06T07:48:10.664Z,11.85
2024-01-06T07:51:13.824Z,10.68
2024-01-06T07:54:16.870Z,11.25
2024-01-06T07:57:19.939Z,10.17
2024-01-06T08:00:23.257Z,9.93
2024-01-06T08:03:26.411Z,9.15
2024-01-06T08:06:29.607Z,9.95
2024-01-06T08:09:32.708Z,9.63
2024-01-06T08:12:35.818Z,9.27
2024-01-06T08:15:39.180Z,8.57
2024-01-06T08:18:42.314Z,9.98
2024-01-06T08:21:45.922Z,10.00
2024-01-06T08:24:49.017Z,9.80
2024-01-06T08:27:52.049Z,11.13
2024-01-06T08:30:55.227Z,10.30
2024-01-06T08:33:58.363Z,10.43
2024-01-06T08:37:01.537Z,8.57
2024-01-06T08:40:06.103Z,8.80
2024-01-06T08:43:09.129Z,8.37
2024-01-06T08:46:12.901Z,7.82
2024-01-06T08:49:16.144Z,8.77
2024-01-06T08:52:19.178Z,8.45
2024-01-06T08:55:22.215Z,9.85
2024-01-06T08:58:25.213Z,10.07
2024-01-06T09:01:28.364Z,9.38
2024-01-06T09:04:32.479Z,10.35
2024-01-06T09:07:35.565Z,9.80
2024-01-06T09:10:38.584Z,10.55
2024-01-06T09:13:41.553Z,9.77
2024-01-06T09:16:44.535Z,10.98
2024-01-06T09:19:49.045Z,10.52
2024-01-06T09:22:52.902Z,10.10
2024-01-06T09:25:56.010Z,9.45
2024-01-06T09:28:58.999Z,9.60
2024-01-06T09:32:01.957Z,9.10
2024-01-06T09:35:05.371Z,10.50
2024-01-06T09:38:08.445Z,9.30
2024-01-06T09:41:11.455Z,10.15
2024-01-06T09:44:16.953Z,10.00
2024-01-06T09:47:20.880Z,9.60
2024-01-06T09:50:23.962Z,9.82
2024-01-06T09:53:29.350Z,9.50
2024-01-06T09:56:32.917Z,9.02
2024-01-06T09:59:37.623Z,9.73
2024-01-06T10:02:41.770Z,10.13
2024-01-06T10:05:44.837Z,10.07
2024-01-06T10:08:52.415Z,9.63
2024-01-06T10:11:58.581Z,11.55
2024-01-06T10:15:01.541Z,10.10
2024-01-06T10:18:05.296Z,9.35
2024-01-06T10:21:08.971Z,9.82
2024-01-06T10:24:12.042Z,11.60
2024-01-06T10:27:15.080Z,11.65
2024-01-06T10:30:19.556Z,11.43
2024-01-06T10:33:26.372Z,12.18
2024-01-06T10:36:29.693Z,14.55
2024-01-06T10:39:34.328Z,14.40
2024-01-06T10:42:40.804Z,15.20
2024-01-06T10:45:43.948Z,20.47
2024-01-06T10:48:47.285Z,14.65
2024-01-06T10:51:51.840Z,15.07
2024-01-06T10:54:56.145Z,14.23
2024-01-06T10:57:59.259Z,24.67
2024-01-06T11:01:02.480Z,17.60
2024-01-06T11:04:06.293Z,14.20
2024-01-06T11:07:09.400Z,16.23
2024-01-06T11:10:16.952Z,13.63
2024-01-06T11:13:23.938Z,16.90
2024-01-06T11:16:39.642Z,13.07
2024-01-06T11:19:43.184Z,13.68
2024-01-06T11:22:46.890Z,13.57
2024-01-06T11:25:49.889Z,13.43
2024-01-06T11:28:54.716Z,11.25
2024-01-06T11:32:25.550Z,11.57
2024-01-06T11:35:30.855Z,11.73
2024-01-06T11:38:38.662Z,11.35
2024-01-06T11:41:51.308Z,10.02
2024-01-06T11:44:54.444Z,11.32
2024-01-06T11:48:04.072Z,11.83
2024-01-06T11:51:07.192Z,13.73
2024-01-06T11:54:11.251Z,11.95
2024-01-06T11:57:14.302Z,13.13
2024-01-06T12:00:18.417Z,14.38
2024-01-06T12:03:21.521Z,12.27
2024-01-06T12:06:24.681Z,11.60
2024-01-06T12:09:27.989Z,12.40
2024-01-06T12:12:31.188Z,11.13
2024-01-06T12:15:34.657Z,10.77
2024-01-06T12:18:37.872Z,11.07
2024-01-06T12:21:41.001Z,11.20
2024-01-06T12:24:44.238Z,11.77
2024-01-06T12:27:48.858Z,13.23
2024-01-06T12:30:51.985Z,16.02
2024-01-06T12:33:55.145Z,13.90
2024-01-06T12:36:58.705Z,15.18
2024-01-06T12:40:01.803Z,14.57
2024-01-06T12:43:06.758Z,13.30
2024-01-06T12:46:09.897Z,13.07
2024-01-06T12:49:13.127Z,12.37
2024-01-06T12:52:16.194Z,12.23
2024-01-06T12:55:19.380Z,13.90
2024-01-06T12:58:22.849Z,14.85
2024-01-06T13:01:26.189Z,15.25
2024-01-06T13:04:29.362Z,14.93
2024-01-06T13:07:32.378Z,16.75
2024-01-06T13:10:36.927Z,15.70
2024-01-06T13:13:39.917Z,14.75
2024-01-06T13:16:43.049Z,17.98
2024-01-06T13:19:46.619Z,16.90
2024-01-06T13:22:49.645Z,33.72
2024-01-06T13:25:52.720Z,28.98
2024-01-06T13:28:55.916Z,25.67
2024-01-06T13:32:00.488Z,24.63
2024-01-06T13:35:06.576Z,24.17
2024-01-06T13:38:10.277Z,24.73
2024-01-06T13:41:13.506Z,26.08
2024-01-06T13:44:16.833Z,23.75
2024-01-06T13:47:20.149Z,24.00
2024-01-06T13:50:23.161Z,21.73
2024-01-06T13:53:26.382Z,22.38
2024-01-06T13:56:29.366Z,25.30
2024-01-06T13:59:32.328Z,29.27
2024-01-06T14:02:35.346Z,30.17
2024-01-06T14:05:38.937Z,23.90
2024-01-06T14:08:42.896Z,21.73
2024-01-06T14:11:46.201Z,21.25
2024-01-06T14:14:49.894Z,22.75
2024-01-06T14:17:53.018Z,24.73
2024-01-06T14:20:57.411Z,21.13
2024-01-06T14:24:00.850Z,19.13
2024-01-06T14:27:04.995Z,21.45
2024-01-06T14:30:10.698Z,21.02
2024-01-06T14:33:14.278Z,25.17
2024-01-06T14:36:17.453Z,23.17
2024-01-06T14:39:23.710Z,20.92
2024-01-06T14:42:26.761Z,21.65
2024-01-06T14:45:29.842Z,20.25
2024-01-06T14:48:32.954Z,20.60
2024-01-06T14:51:36.088Z,20.13
2024-01-06T14:54:40.090Z,21.92
2024-01-06T14:57:44.048Z,21.35
2024-01-06T15:00:47.252Z,21.92
2024-01-06T15:03:50.448Z,23.52
2024-01-06T15:06:53.653Z,28.13
2024-01-06T15:09:57.779Z,29.77
2024-01-06T15:13:02.052Z,28.98
2024-01-06T15:16:06.172Z,26.80
2024-01-06T15:19:09.469Z,26.83
2024-01-06T15:22:12.717Z,22.07
2024-01-06T15:25:15.962Z,23.15
2024-01-06T15:28:19.192Z,25.83
2024-01-06T15:31:22.218Z,26.67
2024-01-06T15:34:25.763Z,25.60
2024-01-06T15:37:28.887Z,23.23
2024-01-06T15:40:31.986Z,21.00
2024-01-06T15:43:35.111Z,20.30
2024-01-06T15:46:38.691Z,20.02
2024-01-06T15:49:41.795Z,19.85
2024-01-06T15:52:47.030Z,21.43
2024-01-06T15:55:50.026Z,19.25
2024-01-06T15:58:55.612Z,19.52
2024-01-06T16:01:59.447Z,19.38
2024-01-06T16:05:02.794Z,20.88
2024-01-06T16:08:06.203Z,19.70
2024-01-06T16:11:09.692Z,17.95
2024-01-06T16:14:12.705Z,17.42
2024-01-06T16:17:15.951Z,18.23
2024-01-06T16:20:19.029Z,16.73
2024-01-06T16:23:24.959Z,16.33
2024-01-06T16:26:28.196Z,17.52
2024-01-06T16:29:31.384Z,18.20
2024-01-06T16:32:34.452Z,19.45
2024-01-06T16:35:38.600Z,17.30
2024-01-06T16:38:42.416Z,18.37
2024-01-06T16:41:45.407Z,18.52
2024-01-06T16:44:48.407Z,20.25
2024-01-06T16:47:51.495Z,21.92
2024-01-06T16:50:54.537Z,18.35
2024-01-06T16:53:57.549Z,18.57
2024-01-06T16:57:01.391Z,18.83
2024-01-06T17:00:06.140Z,18.80
2024-01-06T17:03:09.451Z,18.75
2024-01-06T17:06:13.168Z,19.80
2024-01-06T17:09:16.726Z,19.77
2024-01-06T17:12:22.761Z,20.35
2024-01-06T17:15:28.184Z,19.95
2024-01-06T17:18:31.389Z,20.20
2024-01-06T17:21:34.524Z,21.05
2024-01-06T17:24:37.667Z,21.30
2024-01-06T17:27:41.560Z,20.58
2024-01-06T17:30:44.825Z,22.13
2024-01-06T17:33:48.091Z,21.23
2024-01-06T17:36:51.276Z,23.45
2024-01-06T17:39:54.370Z,22.13
2024-01-06T17:42:57.459Z,20.15
2024-01-06T17:46:00.541Z,20.40
2024-01-06T17:49:04.662Z,19.58
2024-01-06T17:52:08.034Z,20.80
2024-01-06T17:55:11.311Z,20.33
2024-01-06T17:58:14.382Z,21.90
2024-01-06T18:01:17.524Z,24.02
2024-01-06T18:04:20.849Z,21.45
2024-01-06T18:07:25.463Z,20.38
2024-01-06T18:10:28.714Z,20.00
2024-01-06T18:13:31.790Z,17.15
2024-01-06T18:16:34.766Z,17.15
2024-01-06T18:19:37.790Z,17.13
2024-01-06T18:22:40.911Z,16.83
2024-01-06T18:25:44.450Z,17.20
2024-01-06T18:28:47.475Z,17.50
2024-01-06T18:31:51.073Z,18.48
2024-01-06T18:34:54.259Z,19.15
2024-01-06T18:37:57.382Z,19.00
2024-01-06T18:41:01.284Z,20.07
2024-01-06T18:44:10.753Z,21.08
2024-01-06T18:47:16.292Z,17.55
2024-01-06T18:50:20.848Z,17.65
2024-01-06T18:53:23.898Z,17.20
2024-01-06T18:56:28.678Z,16.70
2024-01-06T18:59:32.802Z,17.27
2024-01-06T19:02:36.421Z,17.73
2024-01-06T19:05:39.496Z,20.67
2024-01-06T19:08:42.718Z,21.85
2024-01-06T19:11:46.063Z,20.23
2024-01-06T19:14:49.484Z,19.98
2024-01-06T19:17:52.920Z,20.65
2024-01-06T19:20:56.069Z,18.98
2024-01-06T19:23:59.146Z,19.25
2024-01-06T19:27:03.327Z,17.73
2024-01-06T19:30:07.191Z,16.55
2024-01-06T19:33:10.286Z,15.65
2024-01-06T19:36:13.784Z,17.80
2024-01-06T19:39:16.899Z,16.23
2024-01-06T19:42:19.970Z,15.40
2024-01-06T19:45:23.023Z,14.05
2024-01-06T19:48:26.175Z,14.00
2024-01-06T19:51:29.299Z,13.80
2024-01-06T19:54:33.693Z,13.73
2024-01-06T19:57:37.037Z,12.40
2024-01-06T20:00:40.176Z,12.00
2024-01-06T20:03:43.319Z,12.43
2024-01-06T20:06:47.166Z,12.70
2024-01-06T20:09:50.317Z,11.50
2024-01-06T20:12:53.438Z,13.07
2024-01-06T20:15:57.067Z,13.27
2024-01-06T20:19:00.209Z,14.18
2024-01-06T20:22:04.196Z,15.25
2024-01-06T20:25:07.801Z,14.95
2024-01-06T20:28:11.860Z,15.50
2024-01-06T20:31:15.912Z,14.60
2024-01-06T20:34:19.171Z,14.55
2024-01-06T20:37:22.309Z,14.68
2024-01-06T20:40:25.353Z,14.13
2024-01-06T20:43:28.334Z,13.47
2024-01-06T20:46:31.375Z,13.90
2024-01-06T20:49:34.569Z,12.88
2024-01-06T20:52:38.108Z,13.20
2024-01-06T20:55:42.209Z,13.73
2024-01-06T20:58:45.201Z,12.70
2024-01-06T21:01:48.550Z,17.38
2024-01-06T21:04:51.940Z,22.33
2024-01-06T21:07:55.190Z,40.35
2024-01-06T21:10:58.864Z,22.27
2024-01-06T21:14:01.961Z,13.80
2024-01-06T21:17:05.209Z,14.05
2024-01-06T21:20:08.837Z,13.38
2024-01-06T21:23:11.838Z,12.82
2024-01-06T21:26:15.304Z,12.07
2024-01-06T21:29:18.829Z,11.57
2024-01-06T21:32:21.900Z,11.68
2024-01-06T21:35:24.937Z,11.80
2024-01-06T21:38:27.951Z,11.57
2024-01-06T21:41:30.995Z,11.02
2024-01-06T21:44:33.980Z,11.17
2024-01-06T21:47:38.578Z,11.70
2024-01-06T21:50:41.990Z,12.10
2024-01-06T21:53:45.023Z,11.52
2024-01-06T21:56:48.085Z,10.77
2024-01-06T21:59:51.154Z,9.87
2024-01-06T22:02:54.271Z,11.65
2024-01-06T22:05:57.449Z,11.23
2024-01-06T22:09:10.430Z,10.70
2024-01-06T22:12:15.756Z,10.27
2024-01-06T22:15:18.824Z,9.57
2024-01-06T22:18:22.910Z,10.32
2024-01-06T22:21:26.218Z,10.27
2024-01-06T22:24:30.195Z,10.32
2024-01-06T22:27:33.279Z,10.57
2024-01-06T22:30:36.416Z,9.77
2024-01-06T22:33:39.527Z,10.32
2024-01-06T22:36:42.710Z,9.95
2024-01-06T22:39:45.970Z,11.02
2024-01-06T22:42:49.097Z,11.05
2024-01-06T22:45:52.206Z,11.03
2024-01-06T22:48:55.381Z,10.98
2024-01-06T22:51:58.584Z,11.40
2024-01-06T22:55:01.677Z,11.13
2024-01-06T22:58:04.847Z,11.25
2024-01-06T23:01:08.023Z,10.63
2024-01-06T23:04:11.227Z,11.55
2024-01-06T23:07:14.728Z,11.15
2024-01-06T23:10:17.935Z,11.68
2024-01-06T23:13:20.908Z,11.55
2024-01-06T23:16:24.123Z,10.53
2024-01-06T23:19:27.916Z,10.50
2024-01-06T23:22:30.944Z,9.85
2024-01-06T23:25:33.953Z,9.93
2024-01-06T23:28:37.289Z,10.30
2024-01-06T23:31:40.305Z,10.60
2024-01-06T23:34:43.690Z,9.63
2024-01-06T23:37:51.754Z,9.70
2024-01-06T23:40:54.841Z,9.52
2024-01-06T23:43:57.803Z,10.20
2024-01-06T23:47:00.829Z,9.30
2024-01-06T23:50:04.998Z,11.30
2024-01-06T23:53:08.031Z,10.20
2024-01-06T23:56:11.074Z,10.25
2024-01-06T23:59:14.157Z,10.40
